sensor_id;sensor_type;location;lat;lon;timestamp;temperature;humidity
36548;DHT22;22551;52.206;4.856;2022-08-21T00:04:53;15.50;99.90
36548;DHT22;22551;52.206;4.856;2022-08-21T00:09:55;15.60;99.90
36548;DHT22;22551;52.206;4.856;2022-08-21T00:14:57;15.60;99.90
36548;DHT22;22551;52.206;4.856;2022-08-21T00:20:02;15.60;99.90
36548;DHT22;22551;52.206;4.856;2022-08-21T00:25:07;15.70;99.90
36548;DHT22;22551;52.206;4.856;2022-08-21T00:30:11;15.70;99.90
36548;DHT22;22551;52.206;4.856;2022-08-21T00:35:22;15.60;99.90
36548;DHT22;22551;52.206;4.856;2022-08-21T00:40:30;15.70;99.90
36548;DHT22;22551;52.206;4.856;2022-08-21T00:45:35;15.60;99.90
36548;DHT22;22551;52.206;4.856;2022-08-21T00:50:43;15.60;99.90
36548;DHT22;22551;52.206;4.856;2022-08-21T00:55:48;15.60;99.90
36548;DHT22;22551;52.206;4.856;2022-08-21T01:00:51;15.60;99.90
36548;DHT22;22551;52.206;4.856;2022-08-21T01:05:55;15.60;99.90
36548;DHT22;22551;52.206;4.856;2022-08-21T01:10:59;15.50;99.90
36548;DHT22;22551;52.206;4.856;2022-08-21T01:16:04;15.50;99.90
36548;DHT22;22551;52.206;4.856;2022-08-21T01:21:11;15.40;99.90
36548;DHT22;22551;52.206;4.856;2022-08-21T01:26:16;15.40;99.90
36548;DHT22;22551;52.206;4.856;2022-08-21T01:31:23;15.40;99.90
36548;DHT22;22551;52.206;4.856;2022-08-21T01:36:28;15.30;99.90
36548;DHT22;22551;52.206;4.856;2022-08-21T01:41:30;15.30;99.90
36548;DHT22;22551;52.206;4.856;2022-08-21T01:46:32;15.40;99.90
36548;DHT22;22551;52.206;4.856;2022-08-21T01:51:36;15.40;99.90
36548;DHT22;22551;52.206;4.856;2022-08-21T01:56:40;15.30;99.90
36548;DHT22;22551;52.206;4.856;2022-08-21T02:01:44;15.30;99.90
36548;DHT22;22551;52.206;4.856;2022-08-21T02:06:49;15.20;99.90
36548;DHT22;22551;52.206;4.856;2022-08-21T02:11:51;15.20;99.90
36548;DHT22;22551;52.206;4.856;2022-08-21T02:16:54;15.20;99.90
36548;DHT22;22551;52.206;4.856;2022-08-21T02:21:58;15.10;99.90
36548;DHT22;22551;52.206;4.856;2022-08-21T02:27:00;15.10;99.90
36548;DHT22;22551;52.206;4.856;2022-08-21T02:32:03;15.00;99.90
36548;DHT22;22551;52.206;4.856;2022-08-21T02:37:07;14.90;99.90
36548;DHT22;22551;52.206;4.856;2022-08-21T02:42:09;14.80;99.90
36548;DHT22;22551;52.206;4.856;2022-08-21T02:47:12;14.80;99.90
36548;DHT22;22551;52.206;4.856;2022-08-21T02:52:16;14.80;99.90
36548;DHT22;22551;52.206;4.856;2022-08-21T02:57:19;14.80;99.90
36548;DHT22;22551;52.206;4.856;2022-08-21T03:02:21;14.70;99.90
36548;DHT22;22551;52.206;4.856;2022-08-21T03:07:26;14.70;99.90
36548;DHT22;22551;52.206;4.856;2022-08-21T03:12:29;14.60;99.90
36548;DHT22;22551;52.206;4.856;2022-08-21T03:17:31;14.60;99.90
36548;DHT22;22551;52.206;4.856;2022-08-21T03:22:35;14.60;99.90
36548;DHT22;22551;52.206;4.856;2022-08-21T03:27:38;14.60;99.90
36548;DHT22;22551;52.206;4.856;2022-08-21T03:32:40;14.50;99.90
36548;DHT22;22551;52.206;4.856;2022-08-21T03:37:45;14.50;99.90
36548;DHT22;22551;52.206;4.856;2022-08-21T03:42:48;14.50;99.90
36548;DHT22;22551;52.206;4.856;2022-08-21T03:47:52;14.50;99.90
36548;DHT22;22551;52.206;4.856;2022-08-21T03:52:58;14.40;99.90
36548;DHT22;22551;52.206;4.856;2022-08-21T03:58:00;14.40;99.90
36548;DHT22;22551;52.206;4.856;2022-08-21T04:03:04;14.40;99.90
36548;DHT22;22551;52.206;4.856;2022-08-21T04:08:08;14.40;99.90
36548;DHT22;22551;52.206;4.856;2022-08-21T04:13:11;14.30;99.90
36548;DHT22;22551;52.206;4.856;2022-08-21T04:18:15;14.40;99.90
36548;DHT22;22551;52.206;4.856;2022-08-21T04:23:20;14.40;99.90
36548;DHT22;22551;52.206;4.856;2022-08-21T04:28:23;14.50;99.90
36548;DHT22;22551;52.206;4.856;2022-08-21T04:33:27;14.50;99.90
36548;DHT22;22551;52.206;4.856;2022-08-21T04:38:31;14.50;99.90
36548;DHT22;22551;52.206;4.856;2022-08-21T04:43:33;14.50;99.90
36548;DHT22;22551;52.206;4.856;2022-08-21T04:48:36;14.50;99.90
36548;DHT22;22551;52.206;4.856;2022-08-21T04:53:41;14.40;99.90
36548;DHT22;22551;52.206;4.856;2022-08-21T04:58:47;14.40;99.90
36548;DHT22;22551;52.206;4.856;2022-08-21T05:03:53;14.40;99.90
36548;DHT22;22551;52.206;4.856;2022-08-21T05:08:58;14.50;99.90
36548;DHT22;22551;52.206;4.856;2022-08-21T05:14:01;14.50;99.90
36548;DHT22;22551;52.206;4.856;2022-08-21T05:19:04;14.60;99.90
36548;DHT22;22551;52.206;4.856;2022-08-21T05:24:08;14.70;99.90
36548;DHT22;22551;52.206;4.856;2022-08-21T05:29:12;14.80;99.90
36548;DHT22;22551;52.206;4.856;2022-08-21T05:34:18;14.80;99.90
36548;DHT22;22551;52.206;4.856;2022-08-21T05:39:24;14.90;99.90
36548;DHT22;22551;52.206;4.856;2022-08-21T05:44:26;15.00;99.90
36548;DHT22;22551;52.206;4.856;2022-08-21T05:49:28;15.10;99.90
36548;DHT22;22551;52.206;4.856;2022-08-21T05:54:36;15.20;99.90
36548;DHT22;22551;52.206;4.856;2022-08-21T05:59:38;15.30;99.90
36548;DHT22;22551;52.206;4.856;2022-08-21T06:04:41;15.50;99.90
36548;DHT22;22551;52.206;4.856;2022-08-21T06:09:44;15.60;99.90
36548;DHT22;22551;52.206;4.856;2022-08-21T06:14:47;15.80;99.90
36548;DHT22;22551;52.206;4.856;2022-08-21T06:19:51;16.00;99.90
36548;DHT22;22551;52.206;4.856;2022-08-21T06:24:55;16.10;99.90
36548;DHT22;22551;52.206;4.856;2022-08-21T06:29:57;16.40;99.90
36548;DHT22;22551;52.206;4.856;2022-08-21T06:34:59;16.60;99.90
36548;DHT22;22551;52.206;4.856;2022-08-21T06:40:05;16.80;99.90
36548;DHT22;22551;52.206;4.856;2022-08-21T06:45:09;17.00;99.90
36548;DHT22;22551;52.206;4.856;2022-08-21T06:50:11;17.00;99.90
36548;DHT22;22551;52.206;4.856;2022-08-21T06:55:16;17.20;99.90
36548;DHT22;22551;52.206;4.856;2022-08-21T07:00:20;17.30;99.90
36548;DHT22;22551;52.206;4.856;2022-08-21T07:05:25;17.40;99.90
36548;DHT22;22551;52.206;4.856;2022-08-21T07:10:30;17.50;99.90
36548;DHT22;22551;52.206;4.856;2022-08-21T07:15:32;17.60;99.90
36548;DHT22;22551;52.206;4.856;2022-08-21T07:20:34;17.80;99.90
36548;DHT22;22551;52.206;4.856;2022-08-21T07:25:38;17.90;99.90
36548;DHT22;22551;52.206;4.856;2022-08-21T07:30:40;18.00;99.90
36548;DHT22;22551;52.206;4.856;2022-08-21T07:35:43;18.20;99.90
36548;DHT22;22551;52.206;4.856;2022-08-21T07:40:49;18.40;99.90
36548;DHT22;22551;52.206;4.856;2022-08-21T07:45:53;18.60;99.90
36548;DHT22;22551;52.206;4.856;2022-08-21T07:50:55;18.80;99.90
36548;DHT22;22551;52.206;4.856;2022-08-21T07:55:59;19.10;99.90
36548;DHT22;22551;52.206;4.856;2022-08-21T08:01:01;19.40;99.90
36548;DHT22;22551;52.206;4.856;2022-08-21T08:06:04;19.80;99.90
36548;DHT22;22551;52.206;4.856;2022-08-21T08:11:11;20.40;99.90
36548;DHT22;22551;52.206;4.856;2022-08-21T08:16:15;21.00;99.90
36548;DHT22;22551;52.206;4.856;2022-08-21T08:21:18;21.20;99.90
36548;DHT22;22551;52.206;4.856;2022-08-21T08:26:23;21.40;99.90
36548;DHT22;22551;52.206;4.856;2022-08-21T08:31:26;21.50;99.90
36548;DHT22;22551;52.206;4.856;2022-08-21T08:36:33;21.50;99.90
36548;DHT22;22551;52.206;4.856;2022-08-21T08:41:39;21.30;99.90
36548;DHT22;22551;52.206;4.856;2022-08-21T08:46:44;21.60;99.90
36548;DHT22;22551;52.206;4.856;2022-08-21T08:51:53;21.70;99.90
36548;DHT22;22551;52.206;4.856;2022-08-21T08:57:00;21.90;99.90
36548;DHT22;22551;52.206;4.856;2022-08-21T09:02:03;22.00;99.90
36548;DHT22;22551;52.206;4.856;2022-08-21T09:07:12;22.10;99.90
36548;DHT22;22551;52.206;4.856;2022-08-21T09:12:33;21.90;99.90
36548;DHT22;22551;52.206;4.856;2022-08-21T09:17:47;21.80;99.90
36548;DHT22;22551;52.206;4.856;2022-08-21T09:23:11;22.20;99.90
36548;DHT22;22551;52.206;4.856;2022-08-21T09:28:22;23.10;99.90
36548;DHT22;22551;52.206;4.856;2022-08-21T09:33:24;23.30;99.90
36548;DHT22;22551;52.206;4.856;2022-08-21T09:38:29;23.40;99.90
36548;DHT22;22551;52.206;4.856;2022-08-21T09:43:35;23.50;99.90
36548;DHT22;22551;52.206;4.856;2022-08-21T09:48:43;22.80;99.90
36548;DHT22;22551;52.206;4.856;2022-08-21T09:53:48;22.20;99.90
36548;DHT22;22551;52.206;4.856;2022-08-21T09:58:54;21.80;99.90
36548;DHT22;22551;52.206;4.856;2022-08-21T10:04:03;21.80;99.90
36548;DHT22;22551;52.206;4.856;2022-08-21T10:09:10;22.20;99.90
36548;DHT22;22551;52.206;4.856;2022-08-21T10:14:40;23.30;99.90
36548;DHT22;22551;52.206;4.856;2022-08-21T10:19:55;24.00;99.90
36548;DHT22;22551;52.206;4.856;2022-08-21T10:25:08;24.40;99.90
36548;DHT22;22551;52.206;4.856;2022-08-21T10:30:32;24.80;99.90
36548;DHT22;22551;52.206;4.856;2022-08-21T10:35:42;23.80;99.90
36548;DHT22;22551;52.206;4.856;2022-08-21T10:40:58;23.50;99.90
36548;DHT22;22551;52.206;4.856;2022-08-21T10:46:14;24.00;99.90
36548;DHT22;22551;52.206;4.856;2022-08-21T10:51:30;24.20;99.90
36548;DHT22;22551;52.206;4.856;2022-08-21T10:56:38;25.00;99.90
36548;DHT22;22551;52.206;4.856;2022-08-21T11:01:48;25.20;99.90
36548;DHT22;22551;52.206;4.856;2022-08-21T11:06:58;25.00;99.90
36548;DHT22;22551;52.206;4.856;2022-08-21T11:12:06;24.70;99.90
36548;DHT22;22551;52.206;4.856;2022-08-21T11:17:18;24.70;99.90
36548;DHT22;22551;52.206;4.856;2022-08-21T11:22:25;24.30;99.90
36548;DHT22;22551;52.206;4.856;2022-08-21T11:27:38;24.90;99.90
36548;DHT22;22551;52.206;4.856;2022-08-21T11:33:01;24.60;99.90
36548;DHT22;22551;52.206;4.856;2022-08-21T11:38:26;24.50;99.90
36548;DHT22;22551;52.206;4.856;2022-08-21T11:43:37;24.00;99.90
36548;DHT22;22551;52.206;4.856;2022-08-21T11:48:50;24.80;99.90
36548;DHT22;22551;52.206;4.856;2022-08-21T11:54:24;25.30;99.90
36548;DHT22;22551;52.206;4.856;2022-08-21T11:59:37;25.50;99.90
36548;DHT22;22551;52.206;4.856;2022-08-21T12:04:46;25.20;99.90
36548;DHT22;22551;52.206;4.856;2022-08-21T12:09:54;25.30;99.90
36548;DHT22;22551;52.206;4.856;2022-08-21T12:15:23;25.90;99.90
36548;DHT22;22551;52.206;4.856;2022-08-21T12:21:01;25.80;99.90
36548;DHT22;22551;52.206;4.856;2022-08-21T12:26:23;25.00;99.90
36548;DHT22;22551;52.206;4.856;2022-08-21T12:31:27;25.50;99.90
36548;DHT22;22551;52.206;4.856;2022-08-21T12:36:42;25.00;99.90
36548;DHT22;22551;52.206;4.856;2022-08-21T12:41:49;25.50;99.90
36548;DHT22;22551;52.206;4.856;2022-08-21T12:46:57;25.00;99.90
36548;DHT22;22551;52.206;4.856;2022-08-21T12:52:11;24.90;99.90
36548;DHT22;22551;52.206;4.856;2022-08-21T12:57:23;24.70;99.90
36548;DHT22;22551;52.206;4.856;2022-08-21T13:02:29;25.10;99.90
36548;DHT22;22551;52.206;4.856;2022-08-21T13:07:35;24.70;99.90
36548;DHT22;22551;52.206;4.856;2022-08-21T13:12:40;24.70;99.90
36548;DHT22;22551;52.206;4.856;2022-08-21T13:17:47;24.80;99.90
36548;DHT22;22551;52.206;4.856;2022-08-21T13:22:51;24.80;99.90
36548;DHT22;22551;52.206;4.856;2022-08-21T13:27:59;25.40;99.90
36548;DHT22;22551;52.206;4.856;2022-08-21T13:33:05;25.00;99.90
36548;DHT22;22551;52.206;4.856;2022-08-21T13:38:09;24.80;99.90
36548;DHT22;22551;52.206;4.856;2022-08-21T13:43:17;25.00;99.90
36548;DHT22;22551;52.206;4.856;2022-08-21T13:48:23;24.60;99.90
36548;DHT22;22551;52.206;4.856;2022-08-21T13:53:31;25.00;99.90
36548;DHT22;22551;52.206;4.856;2022-08-21T13:58:42;24.70;99.90
36548;DHT22;22551;52.206;4.856;2022-08-21T14:03:48;25.20;99.90
36548;DHT22;22551;52.206;4.856;2022-08-21T14:08:55;24.60;99.90
36548;DHT22;22551;52.206;4.856;2022-08-21T14:14:05;24.90;99.90
36548;DHT22;22551;52.206;4.856;2022-08-21T14:19:20;24.30;99.90
36548;DHT22;22551;52.206;4.856;2022-08-21T14:24:28;24.50;99.90
36548;DHT22;22551;52.206;4.856;2022-08-21T14:29:36;24.10;99.90
36548;DHT22;22551;52.206;4.856;2022-08-21T14:34:39;22.90;99.90
36548;DHT22;22551;52.206;4.856;2022-08-21T14:39:43;23.40;99.90
36548;DHT22;22551;52.206;4.856;2022-08-21T14:44:46;23.80;99.90
36548;DHT22;22551;52.206;4.856;2022-08-21T14:49:50;23.70;99.90
36548;DHT22;22551;52.206;4.856;2022-08-21T14:55:03;23.90;99.90
36548;DHT22;22551;52.206;4.856;2022-08-21T15:00:06;23.80;99.90
36548;DHT22;22551;52.206;4.856;2022-08-21T15:05:11;23.60;99.90
36548;DHT22;22551;52.206;4.856;2022-08-21T15:10:17;23.40;99.90
36548;DHT22;22551;52.206;4.856;2022-08-21T15:15:20;23.20;99.90
36548;DHT22;22551;52.206;4.856;2022-08-21T15:20:22;23.30;99.90
36548;DHT22;22551;52.206;4.856;2022-08-21T15:25:26;23.30;99.90
36548;DHT22;22551;52.206;4.856;2022-08-21T15:30:30;23.40;99.90
36548;DHT22;22551;52.206;4.856;2022-08-21T15:35:38;23.50;99.90
36548;DHT22;22551;52.206;4.856;2022-08-21T15:40:43;23.40;99.90
36548;DHT22;22551;52.206;4.856;2022-08-21T15:45:46;23.70;99.90
36548;DHT22;22551;52.206;4.856;2022-08-21T15:50:51;23.40;99.90
36548;DHT22;22551;52.206;4.856;2022-08-21T15:55:55;23.80;99.90
36548;DHT22;22551;52.206;4.856;2022-08-21T16:00:59;23.80;99.90
36548;DHT22;22551;52.206;4.856;2022-08-21T16:06:02;23.60;99.90
36548;DHT22;22551;52.206;4.856;2022-08-21T16:11:13;23.40;99.90
36548;DHT22;22551;52.206;4.856;2022-08-21T16:16:21;23.20;99.90
36548;DHT22;22551;52.206;4.856;2022-08-21T16:21:26;23.40;99.90
36548;DHT22;22551;52.206;4.856;2022-08-21T16:26:31;23.60;99.90
36548;DHT22;22551;52.206;4.856;2022-08-21T16:31:36;23.70;99.90
36548;DHT22;22551;52.206;4.856;2022-08-21T16:36:39;23.40;99.90
36548;DHT22;22551;52.206;4.856;2022-08-21T16:41:43;23.30;99.90
36548;DHT22;22551;52.206;4.856;2022-08-21T16:46:45;23.00;99.90
36548;DHT22;22551;52.206;4.856;2022-08-21T16:51:48;23.00;99.90
36548;DHT22;22551;52.206;4.856;2022-08-21T16:56:52;22.80;99.90
36548;DHT22;22551;52.206;4.856;2022-08-21T17:01:55;22.80;99.90
36548;DHT22;22551;52.206;4.856;2022-08-21T17:06:58;22.80;99.90
36548;DHT22;22551;52.206;4.856;2022-08-21T17:12:02;22.80;99.90
36548;DHT22;22551;52.206;4.856;2022-08-21T17:17:07;22.70;99.90
36548;DHT22;22551;52.206;4.856;2022-08-21T17:22:11;22.50;99.90
36548;DHT22;22551;52.206;4.856;2022-08-21T17:27:19;22.40;99.90
36548;DHT22;22551;52.206;4.856;2022-08-21T17:32:24;22.40;99.90
36548;DHT22;22551;52.206;4.856;2022-08-21T17:37:28;22.20;99.90
36548;DHT22;22551;52.206;4.856;2022-08-21T17:42:38;22.00;99.90
36548;DHT22;22551;52.206;4.856;2022-08-21T17:47:41;21.80;99.90
36548;DHT22;22551;52.206;4.856;2022-08-21T17:52:43;21.70;99.90
36548;DHT22;22551;52.206;4.856;2022-08-21T17:57:55;21.70;99.90
36548;DHT22;22551;52.206;4.856;2022-08-21T18:03:09;21.50;99.90
36548;DHT22;22551;52.206;4.856;2022-08-21T18:08:16;21.50;99.90
36548;DHT22;22551;52.206;4.856;2022-08-21T18:13:23;21.40;99.90
36548;DHT22;22551;52.206;4.856;2022-08-21T18:18:32;21.30;99.90
36548;DHT22;22551;52.206;4.856;2022-08-21T18:23:42;21.20;99.90
36548;DHT22;22551;52.206;4.856;2022-08-21T18:28:47;21.10;99.90
36548;DHT22;22551;52.206;4.856;2022-08-21T18:33:49;20.90;99.90
36548;DHT22;22551;52.206;4.856;2022-08-21T18:38:52;20.80;99.90
36548;DHT22;22551;52.206;4.856;2022-08-21T18:43:56;20.70;99.90
36548;DHT22;22551;52.206;4.856;2022-08-21T18:48:58;20.40;99.90
36548;DHT22;22551;52.206;4.856;2022-08-21T18:54:01;20.10;99.90
36548;DHT22;22551;52.206;4.856;2022-08-21T18:59:04;20.00;99.90
36548;DHT22;22551;52.206;4.856;2022-08-21T19:04:08;20.10;99.90
36548;DHT22;22551;52.206;4.856;2022-08-21T19:09:11;20.10;99.90
36548;DHT22;22551;52.206;4.856;2022-08-21T19:14:15;20.10;99.90
36548;DHT22;22551;52.206;4.856;2022-08-21T19:19:18;20.00;99.90
36548;DHT22;22551;52.206;4.856;2022-08-21T19:24:20;20.00;99.90
36548;DHT22;22551;52.206;4.856;2022-08-21T19:29:24;19.70;99.90
36548;DHT22;22551;52.206;4.856;2022-08-21T19:34:27;19.70;99.90
36548;DHT22;22551;52.206;4.856;2022-08-21T19:39:29;19.70;99.90
36548;DHT22;22551;52.206;4.856;2022-08-21T19:44:37;19.70;99.90
36548;DHT22;22551;52.206;4.856;2022-08-21T19:49:42;19.60;99.90
36548;DHT22;22551;52.206;4.856;2022-08-21T19:54:46;19.50;99.90
36548;DHT22;22551;52.206;4.856;2022-08-21T19:59:50;19.50;99.90
36548;DHT22;22551;52.206;4.856;2022-08-21T20:04:52;19.40;99.90
36548;DHT22;22551;52.206;4.856;2022-08-21T20:09:55;19.40;99.90
36548;DHT22;22551;52.206;4.856;2022-08-21T20:14:59;19.40;99.90
36548;DHT22;22551;52.206;4.856;2022-08-21T20:20:02;19.40;99.90
36548;DHT22;22551;52.206;4.856;2022-08-21T20:25:05;19.40;99.90
36548;DHT22;22551;52.206;4.856;2022-08-21T20:30:10;19.30;99.90
36548;DHT22;22551;52.206;4.856;2022-08-21T20:35:13;19.30;99.90
36548;DHT22;22551;52.206;4.856;2022-08-21T20:40:16;19.20;99.90
36548;DHT22;22551;52.206;4.856;2022-08-21T20:45:22;19.10;99.90
36548;DHT22;22551;52.206;4.856;2022-08-21T20:50:27;19.10;99.90
36548;DHT22;22551;52.206;4.856;2022-08-21T20:55:31;19.10;99.90
36548;DHT22;22551;52.206;4.856;2022-08-21T21:00:39;19.10;99.90
36548;DHT22;22551;52.206;4.856;2022-08-21T21:05:47;19.10;99.90
36548;DHT22;22551;52.206;4.856;2022-08-21T21:10:55;19.10;99.90
36548;DHT22;22551;52.206;4.856;2022-08-21T21:16:03;19.10;99.90
36548;DHT22;22551;52.206;4.856;2022-08-21T21:21:12;19.10;99.90
36548;DHT22;22551;52.206;4.856;2022-08-21T21:26:24;19.00;99.90
36548;DHT22;22551;52.206;4.856;2022-08-21T21:31:30;19.00;99.90
36548;DHT22;22551;52.206;4.856;2022-08-21T21:36:40;18.90;99.90
36548;DHT22;22551;52.206;4.856;2022-08-21T21:41:49;18.90;99.90
36548;DHT22;22551;52.206;4.856;2022-08-21T21:47:00;18.90;99.90
36548;DHT22;22551;52.206;4.856;2022-08-21T21:52:17;18.80;99.90
36548;DHT22;22551;52.206;4.856;2022-08-21T21:57:45;18.80;99.90
36548;DHT22;22551;52.206;4.856;2022-08-21T22:03:13;18.50;99.90
36548;DHT22;22551;52.206;4.856;2022-08-21T22:08:25;18.50;99.90
36548;DHT22;22551;52.206;4.856;2022-08-21T22:13:39;18.50;99.90
36548;DHT22;22551;52.206;4.856;2022-08-21T22:18:50;18.50;99.90
36548;DHT22;22551;52.206;4.856;2022-08-21T22:23:59;18.50;99.90
36548;DHT22;22551;52.206;4.856;2022-08-21T22:29:09;18.50;99.90
36548;DHT22;22551;52.206;4.856;2022-08-21T22:34:17;18.50;99.90
36548;DHT22;22551;52.206;4.856;2022-08-21T22:39:27;18.30;99.90
36548;DHT22;22551;52.206;4.856;2022-08-21T22:44:30;18.10;99.90
36548;DHT22;22551;52.206;4.856;2022-08-21T22:49:37;18.10;99.90
36548;DHT22;22551;52.206;4.856;2022-08-21T22:54:44;18.10;99.90
36548;DHT22;22551;52.206;4.856;2022-08-21T22:59:55;18.10;99.90
36548;DHT22;22551;52.206;4.856;2022-08-21T23:05:18;18.20;99.90
36548;DHT22;22551;52.206;4.856;2022-08-21T23:10:28;18.20;99.90
36548;DHT22;22551;52.206;4.856;2022-08-21T23:15:44;18.20;99.90
36548;DHT22;22551;52.206;4.856;2022-08-21T23:20:59;18.20;99.90
36548;DHT22;22551;52.206;4.856;2022-08-21T23:26:17;18.20;99.90
36548;DHT22;22551;52.206;4.856;2022-08-21T23:31:27;18.10;99.90
36548;DHT22;22551;52.206;4.856;2022-08-21T23:36:47;18.00;99.90
36548;DHT22;22551;52.206;4.856;2022-08-21T23:42:26;18.00;99.90
36548;DHT22;22551;52.206;4.856;2022-08-21T23:47:43;18.00;99.90
36548;DHT22;22551;52.206;4.856;2022-08-21T23:53:09;17.90;99.90
36548;DHT22;22551;52.206;4.856;2022-08-21T23:58:26;17.90;99.90
